sensor_id;sensor_type;location;lat;lon;timestamp;pressure;altitude;pressure_sealevel;temperature;humidity
61537;BME280;48695;53.480;-6.300;2023-02-26T00:00:59;102103.38;;;9.32;52.79
61537;BME280;48695;53.480;-6.300;2023-02-26T00:03:24;102102.53;;;9.34;53.25
61537;BME280;48695;53.480;-6.300;2023-02-26T00:05:50;102105.16;;;9.34;52.80
61537;BME280;48695;53.480;-6.300;2023-02-26T00:08:15;102077.28;;;9.20;53.20
61537;BME280;48695;53.480;-6.300;2023-02-26T00:10:41;102115.56;;;9.36;53.29
61537;BME280;48695;53.480;-6.300;2023-02-26T00:13:08;102115.56;;;9.36;53.21
61537;BME280;48695;53.480;-6.300;2023-02-26T00:15:34;102112.09;;;9.37;51.77
61537;BME280;48695;53.480;-6.300;2023-02-26T00:18:05;102112.09;;;9.37;52.26
61537;BME280;48695;53.480;-6.300;2023-02-26T00:20:31;102122.53;;;9.34;52.71
61537;BME280;48695;53.480;-6.300;2023-02-26T00:22:57;102117.28;;;9.31;52.56
61537;BME280;48695;53.480;-6.300;2023-02-26T00:25:22;102106.81;;;9.22;52.75
61537;BME280;48695;53.480;-6.300;2023-02-26T00:27:48;102119.03;;;9.29;52.68
61537;BME280;48695;53.480;-6.300;2023-02-26T00:30:14;102096.31;;;9.08;53.12
61537;BME280;48695;53.480;-6.300;2023-02-26T00:32:40;102132.06;;;9.29;52.90
61537;BME280;48695;53.480;-6.300;2023-02-26T00:35:08;102127.72;;;9.28;53.04
61537;BME280;48695;53.480;-6.300;2023-02-26T00:43:00;102099.81;;;9.08;53.02
61537;BME280;48695;53.480;-6.300;2023-02-26T00:45:26;102131.16;;;9.24;53.06
61537;BME280;48695;53.480;-6.300;2023-02-26T00:48:21;102122.50;;;9.28;52.43
61537;BME280;48695;53.480;-6.300;2023-02-26T00:51:09;102122.47;;;9.25;52.35
61537;BME280;48695;53.480;-6.300;2023-02-26T00:53:46;102125.94;;;9.27;51.95
61537;BME280;48695;53.480;-6.300;2023-02-26T00:56:14;102125.09;;;9.23;51.57
61537;BME280;48695;53.480;-6.300;2023-02-26T00:58:39;102127.66;;;9.22;51.85
61537;BME280;48695;53.480;-6.300;2023-02-26T01:01:04;102098.03;;;9.06;51.12
61537;BME280;48695;53.480;-6.300;2023-02-26T01:03:31;102122.44;;;9.19;51.44
61537;BME280;48695;53.480;-6.300;2023-02-26T01:05:57;102129.41;;;9.20;51.67
61537;BME280;48695;53.480;-6.300;2023-02-26T01:08:42;102124.22;;;9.23;51.24
61537;BME280;48695;53.480;-6.300;2023-02-26T01:11:09;102133.75;;;9.18;50.99
61537;BME280;48695;53.480;-6.300;2023-02-26T01:13:35;102131.09;;;9.15;50.71
61537;BME280;48695;53.480;-6.300;2023-02-26T01:16:04;102133.72;;;9.16;51.23
61537;BME280;48695;53.480;-6.300;2023-02-26T01:18:47;102126.75;;;9.14;50.92
61537;BME280;48695;53.480;-6.300;2023-02-26T01:21:18;102149.31;;;9.12;50.46
61537;BME280;48695;53.480;-6.300;2023-02-26T01:23:49;102140.63;;;9.08;50.55
61537;BME280;48695;53.480;-6.300;2023-02-26T01:26:22;102111.78;;;8.87;50.95
61537;BME280;48695;53.480;-6.300;2023-02-26T01:28:48;102113.53;;;8.86;50.92
61537;BME280;48695;53.480;-6.300;2023-02-26T01:31:47;102105.69;;;8.78;50.94
61537;BME280;48695;53.480;-6.300;2023-02-26T01:36:53;102115.19;;;8.72;51.04
61537;BME280;48695;53.480;-6.300;2023-02-26T01:39:38;102135.16;;;8.73;50.84
61537;BME280;48695;53.480;-6.300;2023-02-26T01:42:17;102142.91;;;8.67;51.42
61537;BME280;48695;53.480;-6.300;2023-02-26T01:44:53;102138.50;;;8.60;51.32
61537;BME280;48695;53.480;-6.300;2023-02-26T01:50:15;102146.22;;;8.47;51.05
61537;BME280;48695;53.480;-6.300;2023-02-26T01:55:18;102151.34;;;8.41;51.28
61537;BME280;48695;53.480;-6.300;2023-02-26T01:57:45;102154.81;;;8.37;51.67
61537;BME280;48695;53.480;-6.300;2023-02-26T02:00:11;102151.25;;;8.35;51.50
61537;BME280;48695;53.480;-6.300;2023-02-26T02:02:37;102159.06;;;8.33;51.91
61537;BME280;48695;53.480;-6.300;2023-02-26T02:05:07;102149.47;;;8.31;51.88
61537;BME280;48695;53.480;-6.300;2023-02-26T02:07:36;102156.47;;;8.32;52.12
61537;BME280;48695;53.480;-6.300;2023-02-26T02:10:02;102142.44;;;8.21;52.53
61537;BME280;48695;53.480;-6.300;2023-02-26T02:18:05;102156.47;;;8.32;52.16
61537;BME280;48695;53.480;-6.300;2023-02-26T02:23:44;102160.81;;;8.33;52.39
61537;BME280;48695;53.480;-6.300;2023-02-26T02:31:58;102160.75;;;8.30;52.06
61537;BME280;48695;53.480;-6.300;2023-02-26T02:35:08;102165.09;;;8.31;52.19
61537;BME280;48695;53.480;-6.300;2023-02-26T02:37:20;102169.44;;;8.30;52.22
61537;BME280;48695;53.480;-6.300;2023-02-26T02:39:57;102165.91;;;8.24;52.41
61537;BME280;48695;53.480;-6.300;2023-02-26T02:42:38;102159.78;;;8.19;52.11
61537;BME280;48695;53.480;-6.300;2023-02-26T02:45:12;102174.63;;;8.29;52.33
61537;BME280;48695;53.480;-6.300;2023-02-26T02:47:41;102169.38;;;8.24;52.32
61537;BME280;48695;53.480;-6.300;2023-02-26T02:50:16;102175.50;;;8.28;52.29
61537;BME280;48695;53.480;-6.300;2023-02-26T02:52:51;102173.66;;;8.21;52.04
61537;BME280;48695;53.480;-6.300;2023-02-26T02:55:26;102187.63;;;8.27;52.39
61537;BME280;48695;53.480;-6.300;2023-02-26T02:58:06;102178.09;;;8.26;52.06
61537;BME280;48695;53.480;-6.300;2023-02-26T03:00:35;102182.38;;;8.23;51.85
61537;BME280;48695;53.480;-6.300;2023-02-26T03:03:30;102170.13;;;8.13;51.67
61537;BME280;48695;53.480;-6.300;2023-02-26T03:05:59;102178.81;;;8.15;52.33
61537;BME280;48695;53.480;-6.300;2023-02-26T03:08:27;102178.00;;;8.17;52.04
61537;BME280;48695;53.480;-6.300;2023-02-26T03:10:54;102163.06;;;8.02;52.03
61537;BME280;48695;53.480;-6.300;2023-02-26T03:13:23;102182.28;;;8.14;52.15
61537;BME280;48695;53.480;-6.300;2023-02-26T03:21:03;102193.50;;;8.10;51.73
61537;BME280;48695;53.480;-6.300;2023-02-26T03:23:33;102189.97;;;8.04;51.53
61537;BME280;48695;53.480;-6.300;2023-02-26T03:31:39;102166.50;;;7.98;52.09
61537;BME280;48695;53.480;-6.300;2023-02-26T03:34:20;102178.69;;;8.02;52.11
61537;BME280;48695;53.480;-6.300;2023-02-26T03:36:58;102179.56;;;8.01;51.77
61537;BME280;48695;53.480;-6.300;2023-02-26T03:42:00;102193.44;;;8.05;51.76
61537;BME280;48695;53.480;-6.300;2023-02-26T03:44:34;102184.75;;;8.01;52.04
61537;BME280;48695;53.480;-6.300;2023-02-26T03:47:05;102196.09;;;8.06;52.00
61537;BME280;48695;53.480;-6.300;2023-02-26T03:49:36;102175.91;;;7.89;52.39
61537;BME280;48695;53.480;-6.300;2023-02-26T03:52:05;102198.66;;;8.05;52.34
61537;BME280;48695;53.480;-6.300;2023-02-26T03:54:36;102196.09;;;8.06;52.44
61537;BME280;48695;53.480;-6.300;2023-02-26T03:57:03;102196.91;;;8.05;52.31
61537;BME280;48695;53.480;-6.300;2023-02-26T03:59:29;102186.47;;;8.01;52.59
61537;BME280;48695;53.480;-6.300;2023-02-26T04:02:01;102189.09;;;8.05;52.32
61537;BME280;48695;53.480;-6.300;2023-02-26T04:04:34;102182.91;;;7.93;52.24
61537;BME280;48695;53.480;-6.300;2023-02-26T04:07:07;102188.09;;;7.91;52.28
61537;BME280;48695;53.480;-6.300;2023-02-26T04:09:33;102204.69;;;8.01;52.44
61537;BME280;48695;53.480;-6.300;2023-02-26T04:11:58;102209.00;;;8.00;52.04
61537;BME280;48695;53.480;-6.300;2023-02-26T04:14:24;102215.06;;;7.99;52.06
61537;BME280;48695;53.480;-6.300;2023-02-26T04:16:49;102201.09;;;7.91;52.24
61537;BME280;48695;53.480;-6.300;2023-02-26T04:19:15;102220.25;;;7.99;52.18
61537;BME280;48695;53.480;-6.300;2023-02-26T04:21:40;102218.53;;;8.00;52.34
61537;BME280;48695;53.480;-6.300;2023-02-26T04:24:05;102227.19;;;7.97;52.42
61537;BME280;48695;53.480;-6.300;2023-02-26T04:26:31;102223.72;;;7.98;52.46
61537;BME280;48695;53.480;-6.300;2023-02-26T04:28:56;102225.47;;;7.99;52.39
61537;BME280;48695;53.480;-6.300;2023-02-26T04:31:22;102209.75;;;7.90;51.93
61537;BME280;48695;53.480;-6.300;2023-02-26T04:33:47;102187.06;;;7.77;52.19
61537;BME280;48695;53.480;-6.300;2023-02-26T04:36:13;102221.97;;;7.97;52.56
61537;BME280;48695;53.480;-6.300;2023-02-26T04:38:38;102231.59;;;8.03;52.41
61537;BME280;48695;53.480;-6.300;2023-02-26T04:41:04;102202.78;;;7.86;52.30
61537;BME280;48695;53.480;-6.300;2023-02-26T04:43:29;102210.66;;;7.92;52.55
61537;BME280;48695;53.480;-6.300;2023-02-26T04:45:55;102206.31;;;7.91;52.34
61537;BME280;48695;53.480;-6.300;2023-02-26T04:48:20;102230.72;;;8.05;52.46
61537;BME280;48695;53.480;-6.300;2023-02-26T04:50:46;102240.31;;;8.06;52.54
61537;BME280;48695;53.480;-6.300;2023-02-26T04:53:11;102232.47;;;8.03;52.67
61537;BME280;48695;53.480;-6.300;2023-02-26T04:55:37;102242.06;;;8.09;52.51
61537;BME280;48695;53.480;-6.300;2023-02-26T04:58:03;102245.56;;;8.11;52.62
61537;BME280;48695;53.480;-6.300;2023-02-26T05:00:28;102249.06;;;8.12;52.80
61537;BME280;48695;53.480;-6.300;2023-02-26T05:02:53;102239.53;;;8.14;52.80
61537;BME280;48695;53.480;-6.300;2023-02-26T05:05:19;102247.34;;;8.15;52.46
61537;BME280;48695;53.480;-6.300;2023-02-26T05:07:44;102249.97;;;8.17;52.59
61537;BME280;48695;53.480;-6.300;2023-02-26T05:10:10;102223.78;;;8.04;52.78
61537;BME280;48695;53.480;-6.300;2023-02-26T05:12:36;102248.25;;;8.19;52.57
61537;BME280;48695;53.480;-6.300;2023-02-26T05:15:02;102252.59;;;8.18;52.78
61537;BME280;48695;53.480;-6.300;2023-02-26T05:17:28;102263.91;;;8.22;52.75
61537;BME280;48695;53.480;-6.300;2023-02-26T05:19:53;102241.25;;;8.12;52.86
61537;BME280;48695;53.480;-6.300;2023-02-26T05:22:19;102244.69;;;8.11;52.78
61537;BME280;48695;53.480;-6.300;2023-02-26T05:24:44;102269.13;;;8.25;52.94
61537;BME280;48695;53.480;-6.300;2023-02-26T05:27:10;102263.88;;;8.19;52.50
61537;BME280;48695;53.480;-6.300;2023-02-26T05:29:35;102270.88;;;8.26;52.80
61537;BME280;48695;53.480;-6.300;2023-02-26T05:32:02;102272.66;;;8.28;53.14
61537;BME280;48695;53.480;-6.300;2023-02-26T05:34:27;102268.31;;;8.27;52.99
61537;BME280;48695;53.480;-6.300;2023-02-26T05:36:53;102271.81;;;8.31;52.97
61537;BME280;48695;53.480;-6.300;2023-02-26T05:39:18;102272.72;;;8.33;52.99
61537;BME280;48695;53.480;-6.300;2023-02-26T05:41:43;102273.59;;;8.33;53.43
61537;BME280;48695;53.480;-6.300;2023-02-26T05:44:10;102212.47;;;7.99;53.00
61537;BME280;48695;53.480;-6.300;2023-02-26T05:46:36;102271.00;;;8.35;53.16
61537;BME280;48695;53.480;-6.300;2023-02-26T05:49:01;102270.97;;;8.32;53.19
61537;BME280;48695;53.480;-6.300;2023-02-26T05:51:27;102208.06;;;7.95;53.19
61537;BME280;48695;53.480;-6.300;2023-02-26T05:53:53;102270.97;;;8.32;53.38
61537;BME280;48695;53.480;-6.300;2023-02-26T05:56:18;102284.00;;;8.35;53.32
61537;BME280;48695;53.480;-6.300;2023-02-26T05:58:44;102277.06;;;8.32;53.46
61537;BME280;48695;53.480;-6.300;2023-02-26T06:01:09;102288.38;;;8.36;53.09
61537;BME280;48695;53.480;-6.300;2023-02-26T06:03:35;102293.59;;;8.36;53.05
61537;BME280;48695;53.480;-6.300;2023-02-26T06:06:00;102281.34;;;8.30;53.43
61537;BME280;48695;53.480;-6.300;2023-02-26T06:08:26;102301.47;;;8.41;53.28
61537;BME280;48695;53.480;-6.300;2023-02-26T06:10:51;102298.84;;;8.41;53.26
61537;BME280;48695;53.480;-6.300;2023-02-26T06:13:17;102304.09;;;8.42;53.13
61537;BME280;48695;53.480;-6.300;2023-02-26T06:15:43;102241.16;;;8.05;52.74
61537;BME280;48695;53.480;-6.300;2023-02-26T06:18:08;102290.19;;;8.40;52.71
61537;BME280;48695;53.480;-6.300;2023-02-26T06:20:34;102300.59;;;8.40;52.39
61537;BME280;48695;53.480;-6.300;2023-02-26T06:23:00;102304.09;;;8.42;52.52
61537;BME280;48695;53.480;-6.300;2023-02-26T06:25:25;102303.09;;;8.34;52.48
61537;BME280;48695;53.480;-6.300;2023-02-26T06:27:51;102315.34;;;8.41;52.79
61537;BME280;48695;53.480;-6.300;2023-02-26T06:30:16;102310.03;;;8.33;52.35
61537;BME280;48695;53.480;-6.300;2023-02-26T06:32:42;102324.06;;;8.42;52.70
61537;BME280;48695;53.480;-6.300;2023-02-26T06:35:08;102316.19;;;8.37;52.50
61537;BME280;48695;53.480;-6.300;2023-02-26T06:37:34;102317.94;;;8.41;52.47
61537;BME280;48695;53.480;-6.300;2023-02-26T06:39:59;102319.72;;;8.42;52.33
61537;BME280;48695;53.480;-6.300;2023-02-26T06:42:25;102286.47;;;8.23;52.45
61537;BME280;48695;53.480;-6.300;2023-02-26T06:44:50;102324.00;;;8.40;52.18
61537;BME280;48695;53.480;-6.300;2023-02-26T06:47:16;102317.91;;;8.37;52.41
61537;BME280;48695;53.480;-6.300;2023-02-26T06:49:41;102324.88;;;8.39;52.49
61537;BME280;48695;53.480;-6.300;2023-02-26T06:52:06;102316.09;;;8.34;52.35
61537;BME280;48695;53.480;-6.300;2023-02-26T06:54:32;102323.06;;;8.35;52.53
61537;BME280;48695;53.480;-6.300;2023-02-26T06:56:57;102337.03;;;8.40;52.20
61537;BME280;48695;53.480;-6.300;2023-02-26T06:59:24;102307.28;;;8.23;52.30
61537;BME280;48695;53.480;-6.300;2023-02-26T07:01:50;102341.38;;;8.41;53.08
61537;BME280;48695;53.480;-6.300;2023-02-26T07:04:15;102348.31;;;8.41;52.78
61537;BME280;48695;53.480;-6.300;2023-02-26T07:06:41;102349.16;;;8.37;53.10
61537;BME280;48695;53.480;-6.300;2023-02-26T07:09:06;102356.13;;;8.39;53.44
61537;BME280;48695;53.480;-6.300;2023-02-26T07:11:31;102354.38;;;8.38;53.73
61537;BME280;48695;53.480;-6.300;2023-02-26T07:13:57;102357.84;;;8.40;54.10
61537;BME280;48695;53.480;-6.300;2023-02-26T07:16:22;102316.66;;;8.10;54.16
61537;BME280;48695;53.480;-6.300;2023-02-26T07:18:48;102301.81;;;8.01;53.83
61537;BME280;48695;53.480;-6.300;2023-02-26T07:21:13;102365.66;;;8.39;54.11
61537;BME280;48695;53.480;-6.300;2023-02-26T07:23:38;102378.75;;;8.43;54.43
61537;BME280;48695;53.480;-6.300;2023-02-26T07:26:04;102369.88;;;8.32;54.26
61537;BME280;48695;53.480;-6.300;2023-02-26T07:28:29;102393.50;;;8.44;54.24
61537;BME280;48695;53.480;-6.300;2023-02-26T07:30:55;102396.97;;;8.43;54.27
61537;BME280;48695;53.480;-6.300;2023-02-26T07:33:21;102389.97;;;8.41;54.18
61537;BME280;48695;53.480;-6.300;2023-02-26T07:35:47;102400.44;;;8.44;54.48
61537;BME280;48695;53.480;-6.300;2023-02-26T07:38:13;102394.34;;;8.43;54.56
61537;BME280;48695;53.480;-6.300;2023-02-26T07:40:38;102392.63;;;8.42;54.65
61537;BME280;48695;53.480;-6.300;2023-02-26T07:43:04;102324.38;;;8.02;54.65
61537;BME280;48695;53.480;-6.300;2023-02-26T07:45:29;102406.50;;;8.44;55.09
61537;BME280;48695;53.480;-6.300;2023-02-26T07:47:54;102413.47;;;8.45;55.06
61537;BME280;48695;53.480;-6.300;2023-02-26T07:50:20;102409.06;;;8.40;55.04
61537;BME280;48695;53.480;-6.300;2023-02-26T07:52:49;102423.88;;;8.45;55.02
61537;BME280;48695;53.480;-6.300;2023-02-26T07:55:15;102376.56;;;8.15;55.19
61537;BME280;48695;53.480;-6.300;2023-02-26T07:57:40;102425.59;;;8.43;55.32
61537;BME280;48695;53.480;-6.300;2023-02-26T08:00:06;102409.91;;;8.37;55.37
61537;BME280;48695;53.480;-6.300;2023-02-26T08:02:32;102434.34;;;8.48;55.27
61537;BME280;48695;53.480;-6.300;2023-02-26T08:04:58;102429.13;;;8.47;55.07
61537;BME280;48695;53.480;-6.300;2023-02-26T08:07:23;102402.91;;;8.36;55.41
61537;BME280;48695;53.480;-6.300;2023-02-26T08:09:48;102427.47;;;8.53;55.27
61537;BME280;48695;53.480;-6.300;2023-02-26T08:12:14;102431.81;;;8.53;55.85
61537;BME280;48695;53.480;-6.300;2023-02-26T08:14:39;102436.16;;;8.54;55.69
61537;BME280;48695;53.480;-6.300;2023-02-26T08:17:08;102446.59;;;8.55;55.57
61537;BME280;48695;53.480;-6.300;2023-02-26T08:19:33;102449.19;;;8.55;55.45
61537;BME280;48695;53.480;-6.300;2023-02-26T08:21:59;102450.03;;;8.54;55.17
61537;BME280;48695;53.480;-6.300;2023-02-26T08:24:24;102447.38;;;8.48;55.17
61537;BME280;48695;53.480;-6.300;2023-02-26T08:26:50;102462.19;;;8.55;55.14
61537;BME280;48695;53.480;-6.300;2023-02-26T08:29:16;102481.38;;;8.61;55.07
61537;BME280;48695;53.480;-6.300;2023-02-26T08:31:42;102485.72;;;8.62;55.17
61537;BME280;48695;53.480;-6.300;2023-02-26T08:34:07;102484.88;;;8.63;55.20
61537;BME280;48695;53.480;-6.300;2023-02-26T08:36:32;102482.28;;;8.64;55.20
61537;BME280;48695;53.480;-6.300;2023-02-26T08:38:58;102484.03;;;8.65;55.11
61537;BME280;48695;53.480;-6.300;2023-02-26T08:41:24;102483.22;;;8.68;54.39
61537;BME280;48695;53.480;-6.300;2023-02-26T08:43:51;102484.06;;;8.67;54.90
61537;BME280;48695;53.480;-6.300;2023-02-26T08:46:17;102485.81;;;8.68;54.65
61537;BME280;48695;53.480;-6.300;2023-02-26T08:48:42;102492.84;;;8.72;54.55
61537;BME280;48695;53.480;-6.300;2023-02-26T08:51:07;102501.53;;;8.72;54.44
61537;BME280;48695;53.480;-6.300;2023-02-26T08:53:33;102495.38;;;8.67;54.54
61537;BME280;48695;53.480;-6.300;2023-02-26T08:55:58;102502.41;;;8.76;54.88
61537;BME280;48695;53.480;-6.300;2023-02-26T08:58:24;102511.16;;;8.81;54.58
61537;BME280;48695;53.480;-6.300;2023-02-26T09:00:49;102511.22;;;8.84;54.67
61537;BME280;48695;53.480;-6.300;2023-02-26T09:03:15;102503.41;;;8.84;54.51
61537;BME280;48695;53.480;-6.300;2023-02-26T09:05:40;102500.84;;;8.87;54.41
61537;BME280;48695;53.480;-6.300;2023-02-26T09:08:07;102513.03;;;8.91;54.46
61537;BME280;48695;53.480;-6.300;2023-02-26T09:10:32;102505.25;;;8.93;54.50
61537;BME280;48695;53.480;-6.300;2023-02-26T09:12:58;102509.63;;;8.95;54.52
61537;BME280;48695;53.480;-6.300;2023-02-26T09:15:23;102510.53;;;8.97;54.63
61537;BME280;48695;53.480;-6.300;2023-02-26T09:17:49;102514.88;;;8.98;54.50
61537;BME280;48695;53.480;-6.300;2023-02-26T09:20:16;102508.81;;;9.01;53.96
61537;BME280;48695;53.480;-6.300;2023-02-26T09:22:41;102519.31;;;9.04;53.78
61537;BME280;48695;53.480;-6.300;2023-02-26T09:25:07;102521.91;;;9.04;54.02
61537;BME280;48695;53.480;-6.300;2023-02-26T09:27:33;102527.19;;;9.08;53.93
61537;BME280;48695;53.480;-6.300;2023-02-26T09:29:59;102527.19;;;9.12;53.79
61537;BME280;48695;53.480;-6.300;2023-02-26T09:32:25;102522.03;;;9.15;53.89
61537;BME280;48695;53.480;-6.300;2023-02-26T09:34:51;102526.38;;;9.14;53.78
61537;BME280;48695;53.480;-6.300;2023-02-26T09:37:16;102520.22;;;9.07;53.53
61537;BME280;48695;53.480;-6.300;2023-02-26T09:39:43;102538.59;;;9.18;53.65
61537;BME280;48695;53.480;-6.300;2023-02-26T09:44:40;102552.63;;;9.28;53.64
61537;BME280;48695;53.480;-6.300;2023-02-26T09:47:11;102555.31;;;9.37;53.77
61537;BME280;48695;53.480;-6.300;2023-02-26T09:49:49;102551.16;;;9.53;53.78
61537;BME280;48695;53.480;-6.300;2023-02-26T09:52:29;102551.31;;;9.65;53.68
61537;BME280;48695;53.480;-6.300;2023-02-26T09:54:59;102554.03;;;9.76;53.25
61537;BME280;48695;53.480;-6.300;2023-02-26T09:57:31;102549.72;;;9.82;52.89
61537;BME280;48695;53.480;-6.300;2023-02-26T09:59:57;102527.84;;;9.67;53.32
61537;BME280;48695;53.480;-6.300;2023-02-26T10:02:41;102562.00;;;9.90;53.14
61537;BME280;48695;53.480;-6.300;2023-02-26T10:05:19;102567.22;;;9.93;53.27
61537;BME280;48695;53.480;-6.300;2023-02-26T10:07:55;102582.00;;;9.92;53.39
61537;BME280;48695;53.480;-6.300;2023-02-26T10:10:57;102578.63;;;9.99;53.42
61537;BME280;48695;53.480;-6.300;2023-02-26T10:13:50;102590.81;;;10.03;53.57
61537;BME280;48695;53.480;-6.300;2023-02-26T10:16:22;102583.84;;;10.02;53.10
61537;BME280;48695;53.480;-6.300;2023-02-26T10:19:12;102594.34;;;10.08;53.12
61537;BME280;48695;53.480;-6.300;2023-02-26T10:21:52;102587.44;;;10.09;53.08
61537;BME280;48695;53.480;-6.300;2023-02-26T10:24:34;102592.66;;;10.10;53.24
61537;BME280;48695;53.480;-6.300;2023-02-26T10:27:14;102610.06;;;10.10;52.96
61537;BME280;48695;53.480;-6.300;2023-02-26T10:35:02;102608.28;;;10.07;53.11
61537;BME280;48695;53.480;-6.300;2023-02-26T10:42:59;102617.19;;;10.25;53.15
61537;BME280;48695;53.480;-6.300;2023-02-26T10:48:23;102617.41;;;10.49;53.81
61537;BME280;48695;53.480;-6.300;2023-02-26T10:50:55;102618.47;;;10.77;54.47
61537;BME280;48695;53.480;-6.300;2023-02-26T10:53:22;102618.69;;;11.09;53.84
61537;BME280;48695;53.480;-6.300;2023-02-26T10:55:59;102568.22;;;11.21;53.33
61537;BME280;48695;53.480;-6.300;2023-02-26T10:58:27;102617.31;;;11.95;51.82
61537;BME280;48695;53.480;-6.300;2023-02-26T11:00:54;102620.00;;;12.31;51.34
61537;BME280;48695;53.480;-6.300;2023-02-26T11:05:55;102613.00;;;12.91;50.62
61537;BME280;48695;53.480;-6.300;2023-02-26T11:08:37;102623.44;;;13.24;51.70
61537;BME280;48695;53.480;-6.300;2023-02-26T11:11:05;102619.94;;;13.33;49.10
61537;BME280;48695;53.480;-6.300;2023-02-26T11:13:35;102631.19;;;13.60;49.50
61537;BME280;48695;53.480;-6.300;2023-02-26T11:16:05;102630.16;;;13.90;48.46
61537;BME280;48695;53.480;-6.300;2023-02-26T11:18:40;102639.63;;;14.17;47.73
61537;BME280;48695;53.480;-6.300;2023-02-26T11:21:07;102622.03;;;14.23;47.43
61537;BME280;48695;53.480;-6.300;2023-02-26T11:23:34;102624.53;;;14.42;47.58
61537;BME280;48695;53.480;-6.300;2023-02-26T11:26:05;102622.56;;;14.70;47.64
61537;BME280;48695;53.480;-6.300;2023-02-26T11:28:37;102623.16;;;15.01;48.38
61537;BME280;48695;53.480;-6.300;2023-02-26T11:31:10;102632.38;;;15.39;47.31
61537;BME280;48695;53.480;-6.300;2023-02-26T11:33:39;102618.84;;;15.71;45.96
61537;BME280;48695;53.480;-6.300;2023-02-26T11:36:17;102635.63;;;16.25;48.51
61537;BME280;48695;53.480;-6.300;2023-02-26T11:38:45;102631.66;;;16.52;44.88
61537;BME280;48695;53.480;-6.300;2023-02-26T11:41:12;102631.13;;;16.86;42.00
61537;BME280;48695;53.480;-6.300;2023-02-26T11:43:43;102629.72;;;17.13;43.41
61537;BME280;48695;53.480;-6.300;2023-02-26T11:46:10;102627.88;;;17.18;42.13
61537;BME280;48695;53.480;-6.300;2023-02-26T11:48:42;102632.78;;;17.36;42.72
61537;BME280;48695;53.480;-6.300;2023-02-26T11:51:17;102632.59;;;17.46;42.20
61537;BME280;48695;53.480;-6.300;2023-02-26T11:53:57;102634.09;;;17.59;44.07
61537;BME280;48695;53.480;-6.300;2023-02-26T11:56:40;102633.81;;;17.74;43.20
61537;BME280;48695;53.480;-6.300;2023-02-26T11:59:16;102645.09;;;17.81;41.02
61537;BME280;48695;53.480;-6.300;2023-02-26T12:01:41;102640.50;;;17.91;40.59
61537;BME280;48695;53.480;-6.300;2023-02-26T12:04:10;102628.59;;;18.08;40.41
61537;BME280;48695;53.480;-6.300;2023-02-26T12:06:36;102629.22;;;18.21;40.28
61537;BME280;48695;53.480;-6.300;2023-02-26T12:09:02;102629.66;;;18.38;39.33
61537;BME280;48695;53.480;-6.300;2023-02-26T12:18:16;102625.06;;;18.47;41.83
61537;BME280;48695;53.480;-6.300;2023-02-26T12:26:24;102637.91;;;17.87;40.91
61537;BME280;48695;53.480;-6.300;2023-02-26T12:39:54;102624.97;;;17.32;40.64
61537;BME280;48695;53.480;-6.300;2023-02-26T12:45:51;102618.25;;;17.99;42.46
61537;BME280;48695;53.480;-6.300;2023-02-26T12:54:21;102625.13;;;19.12;40.34
61537;BME280;48695;53.480;-6.300;2023-02-26T13:10:51;102617.97;;;20.04;38.41
61537;BME280;48695;53.480;-6.300;2023-02-26T13:21:50;102633.59;;;19.85;37.87
61537;BME280;48695;53.480;-6.300;2023-02-26T13:24:23;102620.06;;;19.65;36.52
61537;BME280;48695;53.480;-6.300;2023-02-26T13:26:52;102620.69;;;19.43;35.75
61537;BME280;48695;53.480;-6.300;2023-02-26T13:29:48;102627.22;;;19.32;38.42
61537;BME280;48695;53.480;-6.300;2023-02-26T13:32:20;102628.84;;;19.05;36.30
61537;BME280;48695;53.480;-6.300;2023-02-26T13:35:17;102619.66;;;18.85;37.58
61537;BME280;48695;53.480;-6.300;2023-02-26T13:37:50;102600.16;;;18.54;37.29
61537;BME280;48695;53.480;-6.300;2023-02-26T13:46:02;102622.31;;;18.14;38.48
61537;BME280;48695;53.480;-6.300;2023-02-26T13:51:38;102587.34;;;17.62;37.77
61537;BME280;48695;53.480;-6.300;2023-02-26T13:59:23;102624.97;;;17.74;38.10
61537;BME280;48695;53.480;-6.300;2023-02-26T14:06:47;102623.44;;;17.62;37.91
61537;BME280;48695;53.480;-6.300;2023-02-26T14:16:54;102633.09;;;17.21;38.37
61537;BME280;48695;53.480;-6.300;2023-02-26T14:19:44;102632.53;;;17.05;37.88
61537;BME280;48695;53.480;-6.300;2023-02-26T14:22:34;102635.50;;;16.89;37.83
61537;BME280;48695;53.480;-6.300;2023-02-26T14:25:29;102630.38;;;16.79;39.14
61537;BME280;48695;53.480;-6.300;2023-02-26T14:36:20;102614.72;;;16.12;39.19
61537;BME280;48695;53.480;-6.300;2023-02-26T14:38:49;102631.41;;;16.14;39.22
61537;BME280;48695;53.480;-6.300;2023-02-26T14:43:58;102623.66;;;16.01;40.16
61537;BME280;48695;53.480;-6.300;2023-02-26T14:46:24;102632.31;;;16.13;40.10
61537;BME280;48695;53.480;-6.300;2023-02-26T14:48:50;102636.53;;;16.24;40.24
61537;BME280;48695;53.480;-6.300;2023-02-26T15:00:01;102642.81;;;16.71;39.63
61537;BME280;48695;53.480;-6.300;2023-02-26T15:11:12;102641.59;;;16.37;38.34
61537;BME280;48695;53.480;-6.300;2023-02-26T15:14:03;102648.75;;;16.28;39.81
61537;BME280;48695;53.480;-6.300;2023-02-26T15:16:50;102640.16;;;16.17;40.06
61537;BME280;48695;53.480;-6.300;2023-02-26T15:22:03;102636.56;;;16.21;40.51
61537;BME280;48695;53.480;-6.300;2023-02-26T15:24:33;102639.91;;;16.31;40.06
61537;BME280;48695;53.480;-6.300;2023-02-26T15:27:03;102634.31;;;16.51;40.31
61537;BME280;48695;53.480;-6.300;2023-02-26T15:29:34;102641.88;;;16.75;40.04
61537;BME280;48695;53.480;-6.300;2023-02-26T15:32:24;102640.41;;;17.07;40.13
61537;BME280;48695;53.480;-6.300;2023-02-26T15:35:06;102634.59;;;17.34;39.30
61537;BME280;48695;53.480;-6.300;2023-02-26T15:37:32;102643.03;;;17.52;37.94
61537;BME280;48695;53.480;-6.300;2023-02-26T15:39:58;102644.44;;;17.68;38.21
61537;BME280;48695;53.480;-6.300;2023-02-26T15:42:33;102643.28;;;17.83;38.50
61537;BME280;48695;53.480;-6.300;2023-02-26T15:45:05;102637.91;;;17.87;37.55
61537;BME280;48695;53.480;-6.300;2023-02-26T15:47:33;102638.81;;;17.86;37.51
61537;BME280;48695;53.480;-6.300;2023-02-26T15:49:59;102643.19;;;17.87;37.04
61537;BME280;48695;53.480;-6.300;2023-02-26T15:52:26;102651.22;;;17.84;36.78